Time;durP1;ratioP1;P1;durP2;ratioP2;P2;SDS_P1;SDS_P2;PMS_P1;PMS_P2;Temp;Humidity;BMP_temperature;BMP_pressure;BME280_temperature;BME280_humidity;BME280_pressure;Samples;Min_cycle;Max_cycle;Signal;HPM_P1;HPM_P2
2022/05/20 00:00:40;;;;;;;40.97;25.00;;;17.50;99.90;;;;;;4993047;28;20204;-77
2022/05/20 00:03:06;;;;;;;34.63;23.60;;;17.50;99.90;;;;;;4992280;28;20169;-81
2022/05/20 00:05:33;;;;;;;36.80;24.83;;;17.50;99.90;;;;;;4993085;28;20209;-79
2022/05/20 00:07:59;;;;;;;46.45;26.15;;;17.30;99.90;;;;;;4993280;28;20189;-81
2022/05/20 00:10:27;;;;;;;43.50;24.73;;;17.30;99.90;;;;;;4993061;28;20580;-77
2022/05/20 00:12:53;;;;;;;44.53;24.23;;;17.40;99.90;;;;;;4993362;28;20192;-76
2022/05/20 00:15:22;;;;;;;35.33;24.50;;;17.30;99.90;;;;;;4993365;28;20181;-77
2022/05/20 00:17:48;;;;;;;43.47;25.95;;;17.20;99.90;;;;;;4991627;28;20193;-77
2022/05/20 00:20:16;;;;;;;44.40;25.85;;;17.30;99.90;;;;;;4992857;28;20243;-83
2022/05/20 00:22:42;;;;;;;43.15;25.67;;;17.40;99.90;;;;;;4991700;28;20272;-82
2022/05/20 00:27:54;;;;;;;36.55;24.70;;;17.40;99.90;;;;;;4992960;28;20244;-83
2022/05/20 00:30:20;;;;;;;40.45;23.65;;;17.20;99.90;;;;;;4992952;28;20568;-83
2022/05/20 00:32:46;;;;;;;37.35;23.70;;;17.00;99.90;;;;;;4992805;28;20165;-82
2022/05/20 00:35:13;;;;;;;34.97;24.00;;;16.90;99.90;;;;;;4992763;28;20174;-78
2022/05/20 00:37:40;;;;;;;29.67;23.02;;;16.90;99.90;;;;;;4992808;28;20193;-80
2022/05/20 00:40:09;;;;;;;35.55;23.67;;;16.80;99.90;;;;;;4992923;28;20180;-79
2022/05/20 00:42:35;;;;;;;36.17;22.63;;;16.80;99.90;;;;;;4991759;28;20165;-79
2022/05/20 00:45:02;;;;;;;33.95;22.83;;;16.90;99.90;;;;;;4993491;28;20224;-81
2022/05/20 00:47:28;;;;;;;33.58;23.08;;;16.90;99.90;;;;;;4992780;28;20614;-81
2022/05/20 00:49:56;;;;;;;32.33;23.88;;;16.90;99.90;;;;;;4992853;28;20288;-81
2022/05/20 00:52:24;;;;;;;37.03;23.20;;;16.80;99.90;;;;;;4992765;28;20161;-80
2022/05/20 00:54:55;;;;;;;39.92;23.10;;;16.80;99.90;;;;;;4992960;28;20189;-82
2022/05/20 00:57:24;;;;;;;32.08;22.55;;;16.70;99.90;;;;;;4992554;28;20697;-78
2022/05/20 00:59:59;;;;;;;47.50;23.95;;;16.70;99.90;;;;;;4992697;28;20614;-77
2022/05/20 01:02:26;;;;;;;29.23;21.33;;;16.80;99.90;;;;;;4993109;28;20588;-77
2022/05/20 01:04:59;;;;;;;41.15;24.17;;;16.60;99.90;;;;;;4993162;28;20196;-78
2022/05/20 01:07:28;;;;;;;38.78;22.35;;;16.50;99.90;;;;;;4992813;28;20189;-79
2022/05/20 01:09:54;;;;;;;36.65;22.98;;;16.40;99.90;;;;;;4992406;28;20253;-79
2022/05/20 01:12:21;;;;;;;34.33;22.10;;;16.40;99.90;;;;;;4992444;28;20657;-78
2022/05/20 01:14:48;;;;;;;37.20;23.38;;;16.50;99.90;;;;;;4996052;28;20176;-80
2022/05/20 01:17:15;;;;;;;32.15;23.60;;;16.50;99.90;;;;;;4994556;28;20193;-80
2022/05/20 01:19:53;;;;;;;33.72;24.85;;;16.40;99.90;;;;;;4996140;28;20200;-82
2022/05/20 01:22:36;;;;;;;35.33;23.88;;;16.30;99.90;;;;;;4994665;28;20185;-82
2022/05/20 01:25:04;;;;;;;37.97;25.40;;;16.40;99.90;;;;;;4994736;28;20212;-81
2022/05/20 01:27:29;;;;;;;33.85;23.60;;;16.50;99.90;;;;;;4995781;28;20181;-80
2022/05/20 01:29:55;;;;;;;39.53;24.65;;;16.40;99.90;;;;;;4995517;28;20183;-77
2022/05/20 01:32:20;;;;;;;35.63;24.35;;;16.40;99.90;;;;;;4995742;28;20166;-82
2022/05/20 01:34:46;;;;;;;42.88;25.35;;;16.50;99.90;;;;;;4995856;28;20173;-81
2022/05/20 01:37:12;;;;;;;41.00;25.98;;;16.50;99.90;;;;;;4995633;28;20193;-79
2022/05/20 01:39:38;;;;;;;40.40;25.13;;;16.50;99.90;;;;;;4995550;28;20165;-78
2022/05/20 01:42:20;;;;;;;41.95;23.88;;;16.50;99.90;;;;;;4995907;28;20542;-79
2022/05/20 01:45:12;;;;;;;39.25;23.15;;;16.50;99.90;;;;;;4995537;28;20197;-80
2022/05/20 01:47:49;;;;;;;41.28;24.50;;;16.50;99.90;;;;;;4995221;28;20189;-82
2022/05/20 01:50:38;;;;;;;36.08;22.85;;;16.40;99.90;;;;;;4995679;28;20224;-79
2022/05/20 01:53:37;;;;;;;40.17;23.80;;;16.50;99.90;;;;;;4994531;28;20181;-79
2022/05/20 01:56:18;;;;;;;36.55;23.27;;;16.60;99.90;;;;;;4991373;28;20188;-80
2022/05/20 01:59:16;;;;;;;36.00;22.90;;;16.50;99.90;;;;;;4995563;28;20196;-80
2022/05/20 02:02:03;;;;;;;43.15;24.02;;;16.50;99.90;;;;;;4995242;28;20200;-80
2022/05/20 02:04:43;;;;;;;40.42;24.42;;;16.50;99.90;;;;;;4994736;28;20205;-77
2022/05/20 02:07:13;;;;;;;36.78;24.55;;;16.30;99.90;;;;;;4995080;28;20646;-80
2022/05/20 02:10:00;;;;;;;49.20;23.85;;;16.40;99.90;;;;;;4995184;28;20710;-79
2022/05/20 02:12:31;;;;;;;40.85;25.90;;;16.30;99.90;;;;;;4995070;28;20177;-80
2022/05/20 02:15:07;;;;;;;39.67;24.70;;;16.10;99.90;;;;;;4994831;28;20190;-77
2022/05/20 02:17:37;;;;;;;35.10;23.35;;;16.20;99.90;;;;;;4994598;28;20193;-77
2022/05/20 02:20:15;;;;;;;35.05;23.55;;;16.30;99.90;;;;;;4993473;28;20189;-78
2022/05/20 02:22:47;;;;;;;35.25;22.75;;;16.50;99.90;;;;;;4993640;28;20173;-82
2022/05/20 02:25:17;;;;;;;39.00;24.55;;;16.50;99.90;;;;;;4994037;28;20686;-80
2022/05/20 02:27:47;;;;;;;43.92;23.33;;;16.60;99.90;;;;;;4993670;28;20192;-78
2022/05/20 02:30:23;;;;;;;38.88;24.38;;;16.70;99.90;;;;;;4994898;28;20642;-80
2022/05/20 02:33:03;;;;;;;35.25;23.52;;;16.70;99.90;;;;;;4994622;28;20211;-78
2022/05/20 02:35:28;;;;;;;41.45;23.92;;;16.80;99.90;;;;;;4994774;28;20172;-81
2022/05/20 02:37:54;;;;;;;38.38;24.52;;;16.80;99.90;;;;;;4994324;28;20185;-80
2022/05/20 02:40:21;;;;;;;33.95;22.25;;;16.50;99.90;;;;;;4995034;28;20576;-82
2022/05/20 02:42:47;;;;;;;36.22;23.02;;;16.40;99.90;;;;;;4993041;28;20232;-79
2022/05/20 02:45:13;;;;;;;32.72;23.17;;;16.30;99.90;;;;;;4992892;28;20236;-78
2022/05/20 02:47:39;;;;;;;36.70;24.10;;;16.30;99.90;;;;;;4992997;28;20217;-79
2022/05/20 02:50:09;;;;;;;39.80;23.58;;;16.40;99.90;;;;;;4994512;28;20600;-81
2022/05/20 02:52:35;;;;;;;39.10;24.85;;;16.70;99.90;;;;;;4994303;28;20173;-78
2022/05/20 02:55:02;;;;;;;43.78;25.00;;;16.90;99.90;;;;;;4994250;28;20657;-79
2022/05/20 02:57:28;;;;;;;42.35;25.33;;;16.60;99.90;;;;;;4992931;28;20198;-77
2022/05/20 03:05:23;;;;;;;39.65;25.50;;;16.50;99.90;;;;;;4993862;28;20267;-77
2022/05/20 03:07:48;;;;;;;41.47;26.25;;;16.50;99.90;;;;;;4993858;28;20633;-82
2022/05/20 03:10:14;;;;;;;46.17;25.73;;;16.60;99.90;;;;;;4993557;28;20177;-79
2022/05/20 03:12:40;;;;;;;41.05;24.23;;;16.70;99.90;;;;;;4994022;28;20161;-81
2022/05/20 03:15:10;;;;;;;40.05;24.38;;;16.90;99.90;;;;;;4993983;28;20165;-78
2022/05/20 03:17:36;;;;;;;39.00;26.00;;;16.80;99.90;;;;;;4993624;28;20185;-77
2022/05/20 03:20:04;;;;;;;40.80;26.17;;;16.50;99.90;;;;;;4993906;28;20180;-77
2022/05/20 03:22:32;;;;;;;38.90;26.08;;;16.50;99.90;;;;;;4993727;28;20176;-79
2022/05/20 03:24:58;;;;;;;54.08;26.38;;;16.50;99.90;;;;;;4992277;28;20653;-79
2022/05/20 03:27:24;;;;;;;51.90;26.15;;;16.60;99.90;;;;;;4991992;28;20200;-78
2022/05/20 03:29:49;;;;;;;46.85;26.02;;;16.70;99.90;;;;;;4993744;28;20177;-79
2022/05/20 03:32:16;;;;;;;39.85;25.52;;;16.60;99.90;;;;;;4993546;28;20657;-79
2022/05/20 03:34:43;;;;;;;45.13;25.02;;;16.60;99.90;;;;;;4993701;28;20248;-78
2022/05/20 03:37:09;;;;;;;42.78;25.92;;;16.60;99.90;;;;;;4993270;28;20189;-78
2022/05/20 03:39:35;;;;;;;49.17;26.33;;;16.40;99.90;;;;;;4993721;28;20215;-82
2022/05/20 03:42:02;;;;;;;44.58;27.42;;;16.50;99.90;;;;;;4993692;28;20180;-80
2022/05/20 03:44:28;;;;;;;46.13;26.17;;;16.50;99.90;;;;;;4993461;28;20209;-79
2022/05/20 03:46:55;;;;;;;38.97;25.75;;;16.60;99.90;;;;;;4993552;28;20755;-78
2022/05/20 03:49:23;;;;;;;47.45;28.50;;;16.70;99.90;;;;;;4992394;28;20660;-81
2022/05/20 03:51:51;;;;;;;42.75;26.65;;;16.60;99.90;;;;;;4993489;28;20247;-77
2022/05/20 03:54:18;;;;;;;45.00;27.23;;;16.70;99.90;;;;;;4993859;28;20169;-81
2022/05/20 03:56:44;;;;;;;49.08;29.88;;;16.60;99.90;;;;;;4992017;28;20201;-78
2022/05/20 03:59:11;;;;;;;46.50;29.27;;;16.50;99.90;;;;;;4993649;28;20175;-82
2022/05/20 04:01:57;;;;;;;47.58;29.30;;;16.30;99.90;;;;;;4993280;28;20189;-77
2022/05/20 04:04:43;;;;;;;45.50;29.80;;;16.20;99.90;;;;;;4993316;28;20232;-81
2022/05/20 04:07:16;;;;;;;44.80;28.55;;;16.10;99.90;;;;;;4992934;28;20263;-82
2022/05/20 04:09:42;;;;;;;49.00;30.45;;;16.20;99.90;;;;;;4992086;28;20166;-83
2022/05/20 04:12:18;;;;;;;45.42;28.08;;;16.20;99.90;;;;;;4993253;28;20204;-79
2022/05/20 04:14:43;;;;;;;41.03;27.92;;;16.20;99.90;;;;;;4993526;28;20172;-78
2022/05/20 04:17:09;;;;;;;51.38;27.73;;;16.20;99.90;;;;;;4993194;28;20200;-79
2022/05/20 04:19:35;;;;;;;46.47;28.13;;;16.30;99.90;;;;;;4992127;28;20176;-79
2022/05/20 04:22:05;;;;;;;53.95;28.42;;;16.50;99.90;;;;;;4992359;28;20215;-77
2022/05/20 04:24:31;;;;;;;41.30;27.17;;;16.70;99.90;;;;;;4992105;28;20236;-79
2022/05/20 04:26:57;;;;;;;39.75;25.95;;;16.90;99.90;;;;;;4992201;28;20684;-79
2022/05/20 04:29:22;;;;;;;42.88;26.13;;;17.00;99.90;;;;;;4992637;28;20165;-79
2022/05/20 04:31:50;;;;;;;47.53;29.52;;;17.20;99.90;;;;;;4992333;28;20173;-81
2022/05/20 04:34:17;;;;;;;44.40;25.80;;;17.30;99.90;;;;;;4990251;28;20232;-76
2022/05/20 04:36:43;;;;;;;38.33;26.38;;;17.20;99.90;;;;;;4991844;28;20193;-78
2022/05/20 04:39:09;;;;;;;45.03;28.23;;;17.10;99.90;;;;;;4992144;28;20169;-81
2022/05/20 04:47:06;;;;;;;39.25;26.45;;;17.10;99.90;;;;;;4992353;28;20267;-77
2022/05/20 04:49:32;;;;;;;42.75;27.30;;;17.30;99.90;;;;;;4995628;28;20191;-81
2022/05/20 04:52:02;;;;;;;43.75;28.33;;;17.20;99.90;;;;;;4995718;28;20169;-79
2022/05/20 04:57:32;;;;;;;45.25;26.58;;;17.30;99.90;;;;;;4996265;28;20203;-78
2022/05/20 05:00:09;;;;;;;50.05;25.52;;;17.30;99.90;;;;;;4997959;28;20161;-77
2022/05/20 05:02:35;;;;;;;40.08;26.27;;;17.40;99.90;;;;;;4999640;28;20173;-76
2022/05/20 05:05:02;;;;;;;48.28;26.00;;;17.50;99.90;;;;;;5000187;28;20666;-77
2022/05/20 05:07:27;;;;;;;45.47;24.85;;;17.50;99.90;;;;;;5001374;28;20188;-77
2022/05/20 05:09:53;;;;;;;41.42;26.27;;;17.60;99.90;;;;;;5002384;28;20174;-78
2022/05/20 05:12:19;;;;;;;38.90;25.70;;;17.60;99.90;;;;;;5005984;28;20252;-77
2022/05/20 05:14:50;;;;;;;39.65;26.77;;;17.70;99.90;;;;;;5016148;28;20177;-78
2022/05/20 05:18:09;;;;;;;42.75;26.98;;;17.40;99.90;;;;;;5015736;28;20182;-80
2022/05/20 05:20:08;;;;;;;38.83;25.27;;;17.50;99.90;;;;;;4977044;28;1098349;-79
2022/05/20 05:22:34;;;;;;;44.63;27.42;;;17.40;99.90;;;;;;5016827;28;20188;-79
2022/05/20 05:25:00;;;;;;;47.30;26.13;;;17.60;99.90;;;;;;5016614;28;20213;-80
2022/05/20 05:27:26;;;;;;;47.35;28.85;;;17.90;99.90;;;;;;5007210;28;20276;-79
2022/05/20 05:29:51;;;;;;;52.85;26.45;;;18.20;99.90;;;;;;4996448;28;20261;-77
2022/05/20 05:32:17;;;;;;;40.65;24.85;;;18.20;99.90;;;;;;4996104;28;20176;-82
2022/05/20 05:34:42;;;;;;;45.42;25.83;;;18.10;99.90;;;;;;4996365;28;20173;-82
2022/05/20 05:37:10;;;;;;;40.33;24.48;;;18.20;99.90;;;;;;4995895;28;20275;-79
2022/05/20 05:39:36;;;;;;;49.42;26.90;;;18.30;99.90;;;;;;4995609;28;20252;-82
2022/05/20 05:42:02;;;;;;;36.58;25.45;;;18.20;99.90;;;;;;4995763;28;20224;-79
2022/05/20 05:44:28;;;;;;;38.13;25.77;;;18.30;99.90;;;;;;4996133;28;20256;-77
2022/05/20 05:46:54;;;;;;;39.00;24.77;;;18.40;99.90;;;;;;4995213;28;20181;-80
2022/05/20 05:49:19;;;;;;;37.88;24.00;;;18.50;99.90;;;;;;4995568;28;20228;-80
2022/05/20 05:51:45;;;;;;;35.78;23.13;;;18.60;99.90;;;;;;4994091;28;20224;-80
2022/05/20 05:54:11;;;;;;;34.08;23.63;;;18.50;99.90;;;;;;4995347;28;20169;-79
2022/05/20 05:56:37;;;;;;;47.72;23.98;;;18.60;99.90;;;;;;4995158;28;20189;-78
2022/05/20 05:59:03;;;;;;;35.85;24.92;;;18.70;99.90;;;;;;4995385;28;20192;-78
2022/05/20 06:01:30;;;;;;;33.60;23.27;;;18.90;99.90;;;;;;4995715;28;20178;-83
2022/05/20 06:03:55;;;;;;;42.72;24.60;;;19.20;99.90;;;;;;4995547;28;20511;-83
2022/05/20 06:06:21;;;;;;;36.40;22.25;;;19.40;99.90;;;;;;4994334;28;20212;-83
2022/05/20 06:08:48;;;;;;;34.63;23.05;;;19.50;99.90;;;;;;4995328;28;20219;-82
2022/05/20 06:11:14;;;;;;;35.40;24.20;;;19.20;99.90;;;;;;4995907;28;20177;-80
2022/05/20 06:13:40;;;;;;;37.97;22.77;;;19.30;99.90;;;;;;4995359;28;20188;-78
2022/05/20 06:16:06;;;;;;;35.80;23.02;;;19.40;99.90;;;;;;4995500;28;20638;-81
2022/05/20 06:18:32;;;;;;;30.17;22.48;;;19.60;99.90;;;;;;4994806;28;20880;-78
2022/05/20 06:20:58;;;;;;;45.03;23.10;;;19.80;99.90;;;;;;4994740;28;20181;-79
2022/05/20 06:23:24;;;;;;;35.20;22.35;;;20.00;99.90;;;;;;4994834;28;20210;-81
2022/05/20 06:25:51;;;;;;;37.70;23.35;;;20.40;99.90;;;;;;4993909;28;20213;-85
2022/05/20 06:28:18;;;;;;;38.60;22.58;;;20.30;99.90;;;;;;4995184;28;20196;-81
2022/05/20 06:30:45;;;;;;;53.25;24.15;;;20.30;99.90;;;;;;4995233;28;20224;-79
2022/05/20 06:33:11;;;;;;;36.05;24.50;;;20.50;99.90;;;;;;4996480;28;20634;-82
2022/05/20 06:41:06;;;;;;;39.78;23.73;;;20.40;99.90;;;;;;4995608;28;20188;-85
2022/05/20 06:43:33;;;;;;;47.30;24.70;;;20.40;99.90;;;;;;4995412;28;20165;-85
2022/05/20 06:46:00;;;;;;;42.17;25.30;;;20.10;99.90;;;;;;4994884;28;20296;-80
2022/05/20 06:48:43;;;;;;;37.20;24.90;;;20.20;99.90;;;;;;4996361;28;20197;-81
2022/05/20 06:51:10;;;;;;;49.35;25.20;;;20.30;99.90;;;;;;4996337;28;20248;-83
2022/05/20 06:53:36;;;;;;;38.42;23.98;;;20.50;99.90;;;;;;4995862;28;20168;-83
2022/05/20 06:56:02;;;;;;;44.58;25.25;;;20.60;99.90;;;;;;4994649;28;20185;-82
2022/05/20 06:58:28;;;;;;;44.58;25.38;;;20.60;99.90;;;;;;4994260;28;20181;-82
2022/05/20 07:00:53;;;;;;;40.20;23.70;;;20.60;99.90;;;;;;4995227;28;20170;-80
2022/05/20 07:03:21;;;;;;;47.97;23.45;;;20.80;99.90;;;;;;4994346;28;20649;-85
2022/05/20 07:05:47;;;;;;;43.50;25.17;;;21.20;99.90;;;;;;4994995;28;20211;-78
2022/05/20 07:08:13;;;;;;;32.90;23.15;;;20.80;99.90;;;;;;4994719;28;20189;-79
2022/05/20 07:10:39;;;;;;;32.55;23.40;;;20.90;99.90;;;;;;4993656;28;20642;-85
2022/05/20 07:13:06;;;;;;;35.35;22.08;;;20.70;99.90;;;;;;4993420;28;20165;-83
2022/05/20 07:15:31;;;;;;;36.60;22.45;;;21.40;99.90;;;;;;4993315;28;20173;-84
2022/05/20 07:17:57;;;;;;;39.47;22.00;;;21.70;99.90;;;;;;4994361;28;20692;-86
2022/05/20 07:20:23;;;;;;;33.88;21.83;;;21.70;99.90;;;;;;4994157;28;20181;-80
2022/05/20 07:22:49;;;;;;;33.97;21.17;;;22.00;99.90;;;;;;4994905;28;20661;-84
2022/05/20 07:25:14;;;;;;;45.25;21.98;;;22.40;99.90;;;;;;4994344;28;20287;-88
2022/05/20 07:27:40;;;;;;;31.42;23.08;;;22.20;99.90;;;;;;4994858;28;20203;-84
2022/05/20 07:30:08;;;;;;;35.63;21.02;;;21.80;99.90;;;;;;4994554;28;20204;-86
2022/05/20 07:32:33;;;;;;;32.50;22.27;;;21.70;99.90;;;;;;4992718;28;20169;-85
2022/05/20 07:34:59;;;;;;;34.20;21.77;;;22.00;99.90;;;;;;4993592;28;20177;-84
2022/05/20 07:37:25;;;;;;;44.60;23.65;;;22.10;99.90;;;;;;4994061;28;20240;-83
2022/05/20 07:39:50;;;;;;;33.47;22.83;;;21.90;99.90;;;;;;4994846;28;20165;-81
2022/05/20 07:42:16;;;;;;;38.70;22.45;;;21.80;99.90;;;;;;4993287;28;20312;-81
2022/05/20 07:44:42;;;;;;;30.88;21.70;;;21.60;99.90;;;;;;4993388;28;20288;-80
2022/05/20 07:47:08;;;;;;;49.13;22.35;;;21.40;99.90;;;;;;4992633;28;20196;-80
2022/05/20 07:49:44;;;;;;;34.42;20.92;;;21.30;99.90;;;;;;4995043;28;20161;-79
2022/05/20 07:52:13;;;;;;;30.40;21.45;;;21.40;99.90;;;;;;4994087;28;20180;-83
2022/05/20 07:54:42;;;;;;;36.85;22.35;;;21.30;99.90;;;;;;4993967;28;20172;-81
2022/05/20 07:57:13;;;;;;;30.73;21.02;;;21.40;99.90;;;;;;4994196;28;20225;-83
2022/05/20 07:59:46;;;;;;;35.58;24.45;;;21.40;99.90;;;;;;4993414;28;20946;-85
2022/05/20 08:02:15;;;;;;;32.60;22.80;;;21.30;99.90;;;;;;4996867;28;20640;-87
2022/05/20 08:04:53;;;;;;;39.65;24.10;;;20.90;99.90;;;;;;5003429;28;20689;-80
2022/05/20 08:07:32;;;;;;;35.78;23.65;;;21.00;99.90;;;;;;5002778;28;20696;-81
2022/05/20 08:10:00;;;;;;;40.17;24.25;;;21.10;99.90;;;;;;4993929;28;20175;-86
2022/05/20 08:12:26;;;;;;;35.03;24.33;;;21.10;99.90;;;;;;4993671;28;20173;-82
2022/05/20 08:14:52;;;;;;;43.97;23.90;;;21.10;99.90;;;;;;4993651;28;20165;-80
2022/05/20 08:17:24;;;;;;;39.88;24.35;;;21.10;99.90;;;;;;4992218;28;20661;-82
2022/05/20 08:19:51;;;;;;;35.97;24.45;;;21.30;99.90;;;;;;4993512;28;20169;-79
2022/05/20 08:22:22;;;;;;;37.85;24.42;;;21.40;99.90;;;;;;4993337;28;20183;-81
2022/05/20 08:24:52;;;;;;;39.45;24.00;;;21.40;99.90;;;;;;5000286;28;20207;-83
2022/05/20 08:27:19;;;;;;;39.60;23.55;;;21.40;99.90;;;;;;4996705;28;20184;-81
2022/05/20 08:29:45;;;;;;;42.67;24.13;;;21.10;99.90;;;;;;4997647;28;20169;-85
2022/05/20 08:32:11;;;;;;;39.17;24.63;;;21.20;99.90;;;;;;4997123;28;20184;-83
2022/05/20 08:34:36;;;;;;;42.53;24.02;;;21.40;99.90;;;;;;4996001;28;20177;-84
2022/05/20 08:37:02;;;;;;;38.40;23.75;;;21.30;99.90;;;;;;4997653;28;20197;-81
2022/05/20 08:39:28;;;;;;;624.30;69.38;;;21.50;99.90;;;;;;4997753;28;20246;-85
2022/05/20 08:41:55;;;;;;;54.88;25.27;;;21.60;99.90;;;;;;4998766;28;20177;-83
2022/05/20 08:44:23;;;;;;;45.08;25.48;;;21.50;99.90;;;;;;4997766;28;20166;-82
2022/05/20 08:46:50;;;;;;;40.35;24.98;;;21.60;99.90;;;;;;4998288;28;20200;-89
2022/05/20 08:49:21;;;;;;;39.28;25.27;;;21.60;99.90;;;;;;4994970;28;20183;-81
2022/05/20 08:51:49;;;;;;;55.22;27.33;;;21.80;99.90;;;;;;5022109;28;20177;-83
2022/05/20 08:54:16;;;;;;;44.10;25.33;;;21.80;99.90;;;;;;4996031;28;20204;-86
2022/05/20 08:56:42;;;;;;;42.58;26.65;;;21.90;99.90;;;;;;4995557;28;20216;-81
2022/05/20 08:59:12;;;;;;;41.00;27.05;;;21.90;99.90;;;;;;4996592;28;20189;-84
2022/05/20 09:01:50;;;;;;;46.67;28.05;;;21.80;99.90;;;;;;4996122;28;20632;-83
2022/05/20 09:04:24;;;;;;;44.78;27.90;;;21.60;99.90;;;;;;4993306;28;20188;-82
2022/05/20 09:07:02;;;;;;;45.47;27.88;;;21.60;99.90;;;;;;4986039;28;20204;-82
2022/05/20 09:09:50;;;;;;;38.53;26.55;;;21.70;99.90;;;;;;4975292;28;20174;-83
2022/05/20 09:12:37;;;;;;;45.60;27.92;;;21.80;99.90;;;;;;4992131;28;20538;-85
2022/05/20 09:18:11;;;;;;;45.42;27.52;;;21.70;99.90;;;;;;4996535;28;20259;-84
2022/05/20 09:20:47;;;;;;;42.72;28.27;;;21.60;99.90;;;;;;4996146;28;20208;-83
2022/05/20 09:23:15;;;;;;;56.80;28.08;;;21.70;99.90;;;;;;4996145;28;20169;-83
2022/05/20 09:25:47;;;;;;;53.00;28.23;;;21.70;99.90;;;;;;4994899;28;20212;-83
2022/05/20 09:28:29;;;;;;;43.88;26.92;;;21.80;99.90;;;;;;4994560;28;20601;-84
2022/05/20 09:31:21;;;;;;;44.75;27.30;;;21.80;99.90;;;;;;4994553;28;20169;-84
2022/05/20 09:34:13;;;;;;;44.20;29.00;;;21.70;99.90;;;;;;4995626;28;20181;-85
2022/05/20 09:37:03;;;;;;;55.67;27.65;;;21.60;99.90;;;;;;4993994;28;20193;-83
2022/05/20 09:39:35;;;;;;;53.83;28.23;;;21.70;99.90;;;;;;4994029;28;20173;-83
2022/05/20 09:42:10;;;;;;;75.90;27.92;;;21.70;99.90;;;;;;4995229;28;20179;-83
2022/05/20 09:44:42;;;;;;;50.05;27.55;;;21.70;99.90;;;;;;4994205;28;20200;-84
2022/05/20 09:47:40;;;;;;;42.60;27.35;;;21.60;99.90;;;;;;4995291;28;20189;-84
2022/05/20 09:50:15;;;;;;;43.65;25.63;;;21.70;99.90;;;;;;4994426;28;20281;-84
2022/05/20 09:53:08;;;;;;;39.92;27.48;;;21.60;99.90;;;;;;4994249;28;20729;-84
2022/05/20 09:55:38;;;;;;;39.10;27.42;;;21.70;99.90;;;;;;4995862;28;20165;-85
2022/05/20 09:58:15;;;;;;;49.33;25.63;;;22.00;99.90;;;;;;4993047;28;20193;-84
2022/05/20 10:00:57;;;;;;;52.03;26.27;;;22.30;99.90;;;;;;4995312;28;20181;-86
2022/05/20 10:03:57;;;;;;;50.22;27.45;;;22.50;99.90;;;;;;4997786;28;20169;-88
2022/05/20 10:06:34;;;;;;;43.20;25.55;;;22.70;99.90;;;;;;4996123;28;20739;-85
2022/05/20 10:09:38;;;;;;;37.38;25.77;;;22.60;99.90;;;;;;4995798;28;20172;-83
2022/05/20 10:12:20;;;;;;;33.78;24.08;;;22.40;99.90;;;;;;4984859;28;20187;-91
2022/05/20 10:15:13;;;;;;;40.50;25.17;;;22.50;99.90;;;;;;4994802;28;20545;-84
2022/05/20 10:17:57;;;;;;;46.63;25.17;;;22.50;99.90;;;;;;4994001;28;20201;-86
2022/05/20 10:20:29;;;;;;;44.13;25.17;;;22.80;99.90;;;;;;4995371;28;20257;-88
2022/05/20 10:23:03;;;;;;;42.75;24.70;;;22.90;99.90;;;;;;4996580;28;20193;-89
2022/05/20 10:25:54;;;;;;;37.03;25.05;;;23.00;99.90;;;;;;4995293;28;20241;-87
2022/05/20 10:34:28;;;;;;;37.80;24.63;;;23.40;99.90;;;;;;4995718;28;20542;-82
2022/05/20 10:37:09;;;;;;;42.80;26.67;;;23.50;99.90;;;;;;4996657;28;20189;-84
2022/05/20 10:40:02;;;;;;;39.05;26.20;;;23.40;99.90;;;;;;4995805;28;20165;-89
2022/05/20 10:43:02;;;;;;;40.95;24.60;;;23.10;99.90;;;;;;4995507;28;20653;-84
2022/05/20 10:48:34;;;;;;;40.05;24.80;;;23.00;99.90;;;;;;4997492;28;20212;-82
2022/05/20 10:51:24;;;;;;;35.38;25.58;;;23.00;99.90;;;;;;4993795;28;20227;-83
2022/05/20 10:54:21;;;;;;;41.00;25.30;;;22.90;99.90;;;;;;4994962;28;20161;-80
2022/05/20 10:57:01;;;;;;;35.83;24.95;;;22.80;99.90;;;;;;4993986;28;20285;-80
2022/05/20 10:59:41;;;;;;;40.08;25.73;;;22.60;99.90;;;;;;4994297;28;20216;-81
2022/05/20 11:02:34;;;;;;;40.45;25.77;;;22.40;99.90;;;;;;4995043;28;20588;-86
2022/05/20 11:05:41;;;;;;;45.42;26.23;;;22.00;99.90;;;;;;4994662;28;20255;-88
2022/05/20 11:08:29;;;;;;;47.05;25.17;;;21.80;99.90;;;;;;4995316;28;20197;-82
2022/05/20 11:11:16;;;;;;;37.35;24.90;;;21.80;99.90;;;;;;4994796;28;20231;-90
2022/05/20 11:13:47;;;;;;;41.33;24.88;;;21.80;99.90;;;;;;4995016;28;20169;-89
2022/05/20 11:16:50;;;;;;;49.13;25.08;;;21.70;99.90;;;;;;4993239;28;20230;-81
2022/05/20 11:19:34;;;;;;;49.30;24.92;;;21.40;99.90;;;;;;4994132;28;20171;-83
2022/05/20 11:25:52;;;;;;;44.45;27.08;;;21.00;99.90;;;;;;5033746;28;20215;-87
2022/05/20 11:28:42;;;;;;;45.05;27.90;;;20.90;99.90;;;;;;4956790;28;20186;-84
2022/05/20 11:31:16;;;;;;;46.35;26.67;;;20.70;99.90;;;;;;5016225;28;20175;-83
2022/05/20 11:33:51;;;;;;;39.33;23.75;;;20.60;99.90;;;;;;5016254;28;20172;-85
2022/05/20 11:36:42;;;;;;;34.42;21.90;;;20.60;99.90;;;;;;5019745;28;20742;-83
2022/05/20 11:39:26;;;;;;;43.90;21.75;;;21.00;99.90;;;;;;5016056;28;20200;-85
2022/05/20 11:42:31;;;;;;;31.23;18.67;;;21.30;99.90;;;;;;5016294;28;20172;-84
2022/05/20 11:45:10;;;;;;;29.55;19.38;;;21.50;99.90;;;;;;5015005;28;20226;-84
2022/05/20 11:47:39;;;;;;;27.25;17.10;;;21.40;99.90;;;;;;5015096;28;20205;-82
2022/05/20 11:50:17;;;;;;;20.58;15.65;;;21.50;99.90;;;;;;5033177;28;20164;-84
2022/05/20 11:52:58;;;;;;;16.63;14.80;;;21.70;99.90;;;;;;5035358;28;20168;-90
2022/05/20 11:55:32;;;;;;;11.27;10.18;;;21.60;99.90;;;;;;5017679;28;20160;-87
2022/05/20 11:58:14;;;;;;;12.00;7.78;;;21.80;99.90;;;;;;5034574;28;20267;-88
2022/05/20 12:00:42;;;;;;;6.80;6.20;;;21.60;99.90;;;;;;5017065;28;20164;-87
2022/05/20 12:03:17;;;;;;;6.55;4.25;;;21.90;99.90;;;;;;5001660;28;20179;-88
2022/05/20 12:05:47;;;;;;;5.80;3.55;;;22.10;99.90;;;;;;5019535;28;20676;-87
2022/05/20 12:08:38;;;;;;;2.67;1.90;;;22.20;99.90;;;;;;5018450;28;20314;-89
2022/05/20 12:11:21;;;;;;;3.75;1.27;;;22.40;99.90;;;;;;5016619;28;20204;-89
2022/05/20 12:14:00;;;;;;;8.30;1.30;;;22.80;99.90;;;;;;5034402;28;20180;-87
2022/05/20 12:16:26;;;;;;;2.95;1.00;;;22.70;99.90;;;;;;5035662;28;20194;-87
2022/05/20 12:24:44;;;;;;;1.25;0.77;;;23.10;99.90;;;;;;5033828;28;20237;-87
2022/05/20 12:27:37;;;;;;;3.03;1.10;;;23.20;99.90;;;;;;5022850;28;20203;-88
2022/05/20 12:30:18;;;;;;;7.05;0.70;;;23.20;99.90;;;;;;5016527;28;20164;-88
2022/05/20 12:32:50;;;;;;;5.57;1.45;;;23.10;99.90;;;;;;5016036;28;20184;-88
2022/05/20 12:35:20;;;;;;;5.07;1.20;;;23.00;99.90;;;;;;5015983;28;20214;-88
2022/05/20 12:37:46;;;;;;;20.35;2.17;;;23.10;99.90;;;;;;5018144;28;20183;-91
2022/05/20 12:40:24;;;;;;;9.57;1.58;;;23.50;99.90;;;;;;5049855;28;20202;-89
2022/05/20 12:42:59;;;;;;;4.75;1.98;;;23.50;99.90;;;;;;5034702;28;20168;-90
2022/05/20 12:45:28;;;;;;;5.30;2.58;;;23.30;99.90;;;;;;5033238;28;20199;-87
2022/05/20 12:47:56;;;;;;;4.82;2.30;;;23.30;99.90;;;;;;5033570;28;20192;-86
2022/05/20 12:50:26;;;;;;;7.40;2.35;;;23.00;99.90;;;;;;5014997;28;20600;-88
2022/05/20 12:52:55;;;;;;;8.40;4.20;;;22.60;99.90;;;;;;5000409;28;20266;-86
2022/05/20 12:55:37;;;;;;;3.58;2.28;;;22.50;99.90;;;;;;5021854;28;20270;-86
2022/05/20 12:58:06;;;;;;;4.43;3.30;;;22.00;99.90;;;;;;5036015;28;20272;-87
2022/05/20 13:00:41;;;;;;;9.93;3.75;;;21.90;99.90;;;;;;5037688;28;20171;-85
2022/05/20 13:03:19;;;;;;;4.15;2.28;;;21.80;99.90;;;;;;5036224;28;20258;-88
2022/05/20 13:06:02;;;;;;;7.35;2.95;;;21.70;99.90;;;;;;5052302;28;20732;-85
2022/05/20 13:08:48;;;;;;;14.52;3.75;;;21.60;99.90;;;;;;5034970;28;20199;-86
2022/05/20 13:11:15;;;;;;;9.48;2.70;;;21.40;99.90;;;;;;5038512;28;20203;-91
2022/05/20 13:13:50;;;;;;;5.40;3.72;;;21.50;99.90;;;;;;5036620;28;20172;-86
2022/05/20 13:17:18;;;;;;;4.85;2.75;;;21.30;99.90;;;;;;5057218;28;20183;-87
2022/05/20 13:19:56;;;;;;;6.40;2.55;;;21.30;99.90;;;;;;5041487;28;20187;-86
2022/05/20 13:22:28;;;;;;;2.63;2.42;;;21.70;99.90;;;;;;5055049;28;20235;-87
2022/05/20 13:25:41;;;;;;;6.43;2.78;;;22.00;99.90;;;;;;5051141;28;20223;-85
2022/05/20 13:28:10;;;;;;;3.20;2.97;;;22.00;99.90;;;;;;5039041;28;20211;-89
2022/05/20 13:30:37;;;;;;;3.85;2.40;;;21.80;99.90;;;;;;5054366;28;20155;-85
2022/05/20 13:33:10;;;;;;;5.85;2.20;;;22.00;99.90;;;;;;5032325;28;20172;-85
2022/05/20 13:36:12;;;;;;;2.60;2.40;;;22.30;99.90;;;;;;5041335;28;20174;-91
2022/05/20 13:39:11;;;;;;;2.72;2.53;;;22.00;99.90;;;;;;5037462;28;20202;-85